createdAt,value
2018-07-16T00:00:18.038Z,87.25
2018-07-16T00:01:18.026Z,87.35
2018-07-16T00:02:18.011Z,87.44
2018-07-16T00:03:17.996Z,87.82
2018-07-16T00:04:17.981Z,86.58
2018-07-16T00:05:17.971Z,87.05
2018-07-16T00:06:17.953Z,87.25
2018-07-16T00:07:17.939Z,88.02
2018-07-16T00:08:17.925Z,88.40
2018-07-16T00:09:17.919Z,88.55
2018-07-16T00:10:17.899Z,88.40
2018-07-16T00:11:17.884Z,88.35
2018-07-16T00:12:17.870Z,88.07
2018-07-16T00:13:17.858Z,88.17
2018-07-16T00:14:17.842Z,87.98
2018-07-16T00:15:17.827Z,88.55
2018-07-16T00:16:17.814Z,89.26
2018-07-16T00:17:17.827Z,88.45
2018-07-16T00:18:17.797Z,89.22
2018-07-16T00:19:17.770Z,87.98
2018-07-16T00:20:17.757Z,88.17
2018-07-16T00:21:17.741Z,87.98
2018-07-16T00:22:17.729Z,88.55
2018-07-16T00:23:17.715Z,88.84
2018-07-16T00:24:17.698Z,89.12
2018-07-16T00:25:17.684Z,89.22
2018-07-16T00:26:17.670Z,89.70
2018-07-16T00:27:17.657Z,88.65
2018-07-16T00:28:17.641Z,88.84
2018-07-16T00:29:17.626Z,88.84
2018-07-16T00:30:17.613Z,89.70
2018-07-16T00:31:17.601Z,89.41
2018-07-16T00:32:17.587Z,88.55
2018-07-16T00:33:17.573Z,89.89
2018-07-16T00:34:17.556Z,89.51
2018-07-16T00:35:17.543Z,88.84
2018-07-16T00:36:17.527Z,88.74
2018-07-16T00:37:17.514Z,88.35
2018-07-16T00:38:17.505Z,89.03
2018-07-16T00:39:17.484Z,88.93
2018-07-16T00:40:17.469Z,88.93
2018-07-16T00:41:17.459Z,89.47
2018-07-16T00:42:17.441Z,88.79
2018-07-16T00:43:17.426Z,88.51
2018-07-16T00:44:17.471Z,88.84
2018-07-16T00:45:17.396Z,88.84
2018-07-16T00:46:17.383Z,88.41
2018-07-16T00:47:17.369Z,88.60
2018-07-16T00:48:17.353Z,88.89
2018-07-16T00:49:17.339Z,88.70
2018-07-16T00:50:17.324Z,89.18
2018-07-16T00:51:17.311Z,89.18
2018-07-16T00:52:17.294Z,89.08
2018-07-16T00:53:17.287Z,89.47
2018-07-16T00:54:17.267Z,89.85
2018-07-16T00:55:17.253Z,89.75
2018-07-16T00:56:17.244Z,89.65
2018-07-16T00:57:17.228Z,89.27
2018-07-16T00:58:17.215Z,90.33
2018-07-16T00:59:17.201Z,90.33
2018-07-16T01:00:17.181Z,90.42
2018-07-16T01:01:17.163Z,90.33
2018-07-16T01:02:17.150Z,89.94
2018-07-16T01:03:17.134Z,90.33
2018-07-16T01:04:17.119Z,89.75
2018-07-16T01:05:17.105Z,90.23
2018-07-16T01:06:17.094Z,90.23
2018-07-16T01:07:17.082Z,90.90
2018-07-16T01:08:17.063Z,90.52
2018-07-16T01:09:17.048Z,90.14
2018-07-16T01:10:17.034Z,90.81
2018-07-16T01:11:17.018Z,91.38
2018-07-16T01:12:17.001Z,90.81
2018-07-16T01:13:16.987Z,90.52
2018-07-16T01:14:16.973Z,90.81
2018-07-16T01:15:16.958Z,90.52
2018-07-16T01:16:16.997Z,90.90
2018-07-16T01:17:16.930Z,91.38
2018-07-16T01:18:16.918Z,91.96
2018-07-16T01:19:16.902Z,91.96
2018-07-16T01:20:16.884Z,91.96
2018-07-16T01:21:16.870Z,91.67
2018-07-16T01:22:16.860Z,91.96
2018-07-16T01:23:16.841Z,92.05
2018-07-16T01:24:16.825Z,91.86
2018-07-16T01:25:16.813Z,91.48
2018-07-16T01:26:16.796Z,91.28
2018-07-16T01:27:16.780Z,91.67
2018-07-16T01:28:16.768Z,92.05
2018-07-16T01:29:16.754Z,92.72
2018-07-16T01:30:16.740Z,92.91
2018-07-16T01:31:16.730Z,92.44
2018-07-16T01:32:16.713Z,91.63
2018-07-16T01:33:16.692Z,92.39
2018-07-16T01:34:16.678Z,93.40
2018-07-16T01:35:16.666Z,92.72
2018-07-16T01:36:16.697Z,92.91
2018-07-16T01:37:16.643Z,91.91
2018-07-16T01:38:16.620Z,92.20
2018-07-16T01:39:16.604Z,92.20
2018-07-16T01:40:16.591Z,92.10
2018-07-16T01:41:16.579Z,92.49
2018-07-16T01:42:16.561Z,92.39
2018-07-16T01:43:16.547Z,91.63
2018-07-16T01:44:16.532Z,91.43
2018-07-16T01:45:16.516Z,91.43
2018-07-16T01:46:16.500Z,91.82
2018-07-16T01:47:16.486Z,92.01
2018-07-16T01:48:16.470Z,92.68
2018-07-16T01:49:16.457Z,92.01
2018-07-16T01:50:16.441Z,92.30
2018-07-16T01:51:16.425Z,91.53
2018-07-16T01:52:16.412Z,92.30
2018-07-16T01:53:16.395Z,92.10
2018-07-16T01:54:16.381Z,91.63
2018-07-16T01:55:16.368Z,91.72
2018-07-16T01:56:16.352Z,91.14
2018-07-16T01:57:16.339Z,91.63
2018-07-16T01:58:16.321Z,92.58
2018-07-16T01:59:16.307Z,92.87
2018-07-16T02:00:16.291Z,93.54
2018-07-16T02:01:16.275Z,92.87
2018-07-16T02:02:16.264Z,93.16
2018-07-16T02:03:16.245Z,92.97
2018-07-16T02:04:16.228Z,92.87
2018-07-16T02:05:16.218Z,92.39
2018-07-16T02:06:16.201Z,91.82
2018-07-16T02:07:16.188Z,92.68
2018-07-16T02:08:16.169Z,92.20
2018-07-16T02:09:16.154Z,91.58
2018-07-16T02:10:16.143Z,91.96
2018-07-16T02:11:16.124Z,92.25
2018-07-16T02:12:16.109Z,92.35
2018-07-16T02:13:16.092Z,92.97
2018-07-16T02:14:16.080Z,92.77
2018-07-16T02:15:16.168Z,92.63
2018-07-16T02:16:16.048Z,92.25
2018-07-16T02:17:16.035Z,92.06
2018-07-16T02:18:16.027Z,92.35
2018-07-16T02:19:16.004Z,91.86
2018-07-16T02:20:15.988Z,91.67
2018-07-16T02:21:15.976Z,91.58
2018-07-16T02:22:15.957Z,91.49
2018-07-16T02:23:15.943Z,91.86
2018-07-16T02:24:15.927Z,91.86
2018-07-16T02:25:15.913Z,91.39
2018-07-16T02:26:15.898Z,92.15
2018-07-16T02:27:15.887Z,91.96
2018-07-16T02:28:15.870Z,92.63
2018-07-16T02:29:15.851Z,92.82
2018-07-16T02:30:15.836Z,92.25
2018-07-16T02:31:15.821Z,91.86
2018-07-16T02:32:15.805Z,92.06
2018-07-16T02:33:15.791Z,91.96
2018-07-16T02:34:15.775Z,92.73
2018-07-16T02:35:15.760Z,92.82
2018-07-16T02:36:15.744Z,92.82
2018-07-16T02:37:15.730Z,92.63
2018-07-16T02:38:15.719Z,93.02
2018-07-16T02:39:15.699Z,92.63
2018-07-16T02:40:15.684Z,93.11
2018-07-16T02:41:15.667Z,92.92
2018-07-16T02:42:15.657Z,93.02
2018-07-16T02:43:15.638Z,92.73
2018-07-16T02:44:15.622Z,93.11
2018-07-16T02:45:15.607Z,93.21
2018-07-16T02:46:15.591Z,92.92
2018-07-16T02:47:15.580Z,92.92
2018-07-16T02:48:15.561Z,92.82
2018-07-16T02:49:15.549Z,93.11
2018-07-16T02:50:15.531Z,93.21
2018-07-16T02:51:15.514Z,93.40
2018-07-16T02:52:15.503Z,93.02
2018-07-16T02:53:15.518Z,93.21
2018-07-16T02:54:15.477Z,93.02
2018-07-16T02:55:15.454Z,93.69
2018-07-16T02:56:15.500Z,93.93
2018-07-16T02:57:15.423Z,93.88
2018-07-16T02:58:15.408Z,93.16
2018-07-16T02:59:15.394Z,93.88
2018-07-16T03:00:15.376Z,93.69
2018-07-16T03:01:15.365Z,93.78
2018-07-16T03:02:15.345Z,93.69
2018-07-16T03:03:15.330Z,93.40
2018-07-16T03:04:15.314Z,93.30
2018-07-16T03:05:15.306Z,92.92
2018-07-16T03:06:15.282Z,92.21
2018-07-16T03:07:15.268Z,92.11
2018-07-16T03:08:15.255Z,93.21
2018-07-16T03:09:15.237Z,93.21
2018-07-16T03:10:15.222Z,93.21
2018-07-16T03:11:15.207Z,93.26
2018-07-16T03:12:15.211Z,92.30
2018-07-16T03:13:15.177Z,92.40
2018-07-16T03:14:15.159Z,92.21
2018-07-16T03:15:15.148Z,92.78
2018-07-16T03:16:15.133Z,92.87
2018-07-16T03:17:15.114Z,93.16
2018-07-16T03:18:15.100Z,93.07
2018-07-16T03:19:15.082Z,92.97
2018-07-16T03:20:15.064Z,92.30
2018-07-16T03:21:15.050Z,93.26
2018-07-16T03:22:15.037Z,93.64
2018-07-16T03:23:15.020Z,93.74
2018-07-16T03:24:15.003Z,93.64
2018-07-16T03:25:14.991Z,93.74
2018-07-16T03:26:14.974Z,93.74
2018-07-16T03:27:14.957Z,94.21
2018-07-16T03:28:14.940Z,93.93
2018-07-16T03:29:14.923Z,93.64
2018-07-16T03:30:14.917Z,92.49
2018-07-16T03:31:14.894Z,93.64
2018-07-16T03:32:14.877Z,94.21
2018-07-16T03:33:14.863Z,94.98
2018-07-16T03:34:14.846Z,94.98
2018-07-16T03:35:14.888Z,95.07
2018-07-16T03:36:14.814Z,94.69
2018-07-16T03:37:14.803Z,94.98
2018-07-16T03:38:14.884Z,95.36
2018-07-16T03:39:14.770Z,95.17
2018-07-16T03:40:14.755Z,95.75
2018-07-16T03:41:14.739Z,96.42
2018-07-16T03:42:14.724Z,96.13
2018-07-16T03:43:14.714Z,96.22
2018-07-16T03:44:14.692Z,95.65
2018-07-16T03:45:14.675Z,95.75
2018-07-16T03:46:14.661Z,95.84
2018-07-16T03:47:14.644Z,95.84
2018-07-16T03:48:14.628Z,95.75
2018-07-16T03:49:14.611Z,95.46
2018-07-16T03:50:14.597Z,95.07
2018-07-16T03:51:14.583Z,95.07
2018-07-16T03:52:14.568Z,95.17
2018-07-16T03:53:14.550Z,94.50
2018-07-16T03:54:14.533Z,94.69
2018-07-16T03:55:14.517Z,95.07
2018-07-16T03:56:14.502Z,95.65
2018-07-16T03:57:14.488Z,95.07
2018-07-16T03:58:14.469Z,95.17
2018-07-16T03:59:14.455Z,94.79
2018-07-16T04:00:14.444Z,95.17
2018-07-16T04:01:14.423Z,96.13
2018-07-16T04:02:14.408Z,96.42
2018-07-16T04:04:01.336Z,96.42
2018-07-16T04:05:01.317Z,96.61
2018-07-16T04:06:01.307Z,95.94
2018-07-16T04:07:01.288Z,96.22
2018-07-16T04:08:01.274Z,95.94
2018-07-16T04:09:01.261Z,96.13
2018-07-16T04:10:01.245Z,96.42
2018-07-16T04:11:01.224Z,96.51
2018-07-16T04:12:01.208Z,96.03
2018-07-16T04:13:01.196Z,96.22
2018-07-16T04:14:01.178Z,96.03
2018-07-16T04:15:01.165Z,95.27
2018-07-16T04:16:01.146Z,95.17
2018-07-16T04:17:01.131Z,95.17
2018-07-16T04:18:01.116Z,95.94
2018-07-16T04:19:01.105Z,96.51
2018-07-16T04:20:01.082Z,96.51
2018-07-16T04:21:01.067Z,96.99
2018-07-16T04:22:01.062Z,97.28
2018-07-16T04:23:01.034Z,96.61
2018-07-16T04:24:01.020Z,97.52
2018-07-16T04:25:01.005Z,97.95
2018-07-16T04:26:00.988Z,97.80
2018-07-16T04:27:00.973Z,99.43
2018-07-16T04:28:00.957Z,99.99
2018-07-16T04:29:00.942Z,98.76
2018-07-16T04:30:00.924Z,97.90
2018-07-16T04:31:00.961Z,98.67
2018-07-16T04:32:00.893Z,98.96
2018-07-16T04:33:00.878Z,98.96
2018-07-16T04:34:00.861Z,98.67
2018-07-16T04:35:00.845Z,98.19
2018-07-16T04:36:00.844Z,98.96
2018-07-16T04:37:00.819Z,99.82
2018-07-16T04:38:00.799Z,98.96
2018-07-16T04:39:00.785Z,98.57
2018-07-16T04:40:00.885Z,98.86
2018-07-16T04:41:00.753Z,98.67
2018-07-16T04:42:00.736Z,99.05
2018-07-16T04:43:00.721Z,99.63
2018-07-16T04:44:00.704Z,99.72
2018-07-16T04:45:00.688Z,99.63
2018-07-16T04:46:00.677Z,99.99
2018-07-16T04:47:00.659Z,99.99
2018-07-16T04:48:00.642Z,99.77
2018-07-16T04:49:00.630Z,99.99
2018-07-16T04:50:00.613Z,99.99
2018-07-16T04:51:00.600Z,99.99
2018-07-16T04:52:00.580Z,99.99
2018-07-16T04:53:00.564Z,99.99
2018-07-16T04:54:00.552Z,99.99
2018-07-16T04:55:00.535Z,99.99
2018-07-16T04:56:00.518Z,99.99
2018-07-16T04:57:00.501Z,99.99
2018-07-16T04:58:00.489Z,99.99
2018-07-16T04:59:00.471Z,99.99
2018-07-16T05:00:00.459Z,99.99
2018-07-16T05:01:00.442Z,99.99
2018-07-16T05:02:00.426Z,99.96
2018-07-16T05:03:00.410Z,99.39
2018-07-16T05:04:00.394Z,98.43
2018-07-16T05:05:00.378Z,98.00
2018-07-16T05:06:00.370Z,97.23
2018-07-16T05:07:00.353Z,97.61
2018-07-16T05:08:00.332Z,96.94
2018-07-16T05:09:00.318Z,97.81
2018-07-16T05:10:00.303Z,97.71
2018-07-16T05:11:00.288Z,97.81
2018-07-16T05:12:00.270Z,97.90
2018-07-16T05:13:00.258Z,98.00
2018-07-16T05:14:00.243Z,98.28
2018-07-16T05:15:00.228Z,97.76
2018-07-16T05:16:00.212Z,98.72
2018-07-16T05:17:00.195Z,97.86
2018-07-16T05:18:00.199Z,97.56
2018-07-16T05:19:00.167Z,96.66
2018-07-16T05:20:00.151Z,97.19
2018-07-16T05:21:00.137Z,97.56
2018-07-16T05:22:00.121Z,96.89
2018-07-16T05:23:00.119Z,96.13
2018-07-16T05:24:00.141Z,97.09
2018-07-16T05:25:00.076Z,96.89
2018-07-16T05:26:00.117Z,97.38
2018-07-16T05:27:00.049Z,96.99
2018-07-16T05:28:00.034Z,96.89
2018-07-16T05:29:00.028Z,97.09
2018-07-16T05:30:00.000Z,96.13
2018-07-16T05:30:59.987Z,96.99
2018-07-16T05:32:00.025Z,96.03
2018-07-16T05:32:59.959Z,96.22
2018-07-16T05:33:59.942Z,96.27
2018-07-16T05:34:59.926Z,96.08
2018-07-16T05:35:59.912Z,95.79
2018-07-16T05:36:59.901Z,95.89
2018-07-16T05:37:59.885Z,95.50
2018-07-16T05:38:59.869Z,95.03
2018-07-16T05:39:59.852Z,94.93
2018-07-16T05:40:59.840Z,94.93
2018-07-16T05:41:59.824Z,94.35
2018-07-16T05:42:59.811Z,92.72
2018-07-16T05:43:59.796Z,93.68
2018-07-16T05:44:59.788Z,93.77
2018-07-16T05:45:59.766Z,92.91
2018-07-16T05:46:59.751Z,93.01
2018-07-16T05:47:59.742Z,92.33
2018-07-16T05:48:59.729Z,93.25
2018-07-16T05:49:59.709Z,93.15
2018-07-16T05:50:59.702Z,91.42
2018-07-16T05:51:59.677Z,91.61
2018-07-16T05:52:59.667Z,91.33
2018-07-16T05:53:59.648Z,91.81
2018-07-16T05:54:59.639Z,91.61
2018-07-16T05:55:59.618Z,90.66
2018-07-16T05:56:59.606Z,90.27
2018-07-16T05:57:59.591Z,89.22
2018-07-16T05:58:59.578Z,88.78
2018-07-16T05:59:59.565Z,88.78
2018-07-16T06:00:59.552Z,88.97
2018-07-16T06:01:59.533Z,88.16
2018-07-16T06:02:59.521Z,88.59
2018-07-16T06:03:59.505Z,88.97
2018-07-16T06:04:59.490Z,88.97
2018-07-16T06:05:59.476Z,88.49
2018-07-16T06:06:59.462Z,87.05
2018-07-16T06:07:59.446Z,86.28
2018-07-16T06:08:59.433Z,87.24
2018-07-16T06:09:59.417Z,88.01
2018-07-16T06:10:59.404Z,88.59
2018-07-16T06:11:59.389Z,88.44
2018-07-16T06:12:59.378Z,87.29
2018-07-16T06:13:59.360Z,84.98
2018-07-16T06:14:59.355Z,84.30
2018-07-16T06:15:59.344Z,84.40
2018-07-16T06:16:59.319Z,84.69
2018-07-16T06:17:59.308Z,84.40
2018-07-16T06:18:59.293Z,85.17
2018-07-16T06:19:59.276Z,85.17
2018-07-16T06:20:59.264Z,84.98
2018-07-16T06:21:59.252Z,84.44
2018-07-16T06:22:59.245Z,85.36
2018-07-16T06:23:59.258Z,85.02
2018-07-16T06:24:59.207Z,85.11
2018-07-16T06:25:59.196Z,84.34
2018-07-16T06:26:59.190Z,83.09
2018-07-16T06:27:59.166Z,83.00
2018-07-16T06:28:59.151Z,82.61
2018-07-16T06:29:59.138Z,82.42
2018-07-16T06:30:59.127Z,82.90
2018-07-16T06:31:59.115Z,82.71
2018-07-16T06:32:59.114Z,83.77
2018-07-16T06:33:59.087Z,83.62
2018-07-16T06:34:59.075Z,81.98
2018-07-16T06:35:59.055Z,81.50
2018-07-16T06:36:59.043Z,80.63
2018-07-16T06:37:59.028Z,81.40
2018-07-16T06:38:59.018Z,80.25
2018-07-16T06:39:59.170Z,77.46
2018-07-16T06:40:59.219Z,77.46
2018-07-16T06:41:58.976Z,77.65
2018-07-16T06:42:58.961Z,78.75
2018-07-16T06:43:58.946Z,78.75
2018-07-16T06:44:58.938Z,79.43
2018-07-16T06:45:58.922Z,78.27
2018-07-16T06:46:58.907Z,78.75
2018-07-16T06:47:58.896Z,77.59
2018-07-16T06:48:58.885Z,77.34
2018-07-16T06:49:58.871Z,77.59
2018-07-16T06:50:58.855Z,76.96
2018-07-16T06:51:58.841Z,76.57
2018-07-16T06:52:58.832Z,76.28
2018-07-16T06:53:58.819Z,77.15
2018-07-16T06:54:58.807Z,75.80
2018-07-16T06:55:58.789Z,74.74
2018-07-16T06:56:58.776Z,74.07
2018-07-16T06:57:58.762Z,74.74
2018-07-16T06:58:58.753Z,75.13
2018-07-16T06:59:58.744Z,72.75
2018-07-16T07:00:58.725Z,72.85
2018-07-16T07:01:58.716Z,73.33
2018-07-16T07:02:58.699Z,73.53
2018-07-16T07:03:58.686Z,71.02
2018-07-16T07:04:58.672Z,71.50
2018-07-16T07:05:58.661Z,71.89
2018-07-16T07:06:58.651Z,73.05
2018-07-16T07:07:58.633Z,72.27
2018-07-16T07:08:58.623Z,71.31
2018-07-16T07:09:58.672Z,70.00
2018-07-16T07:10:58.597Z,70.67
2018-07-16T07:11:58.584Z,71.06
2018-07-16T07:12:58.574Z,70.00
2018-07-16T07:13:58.560Z,70.38
2018-07-16T07:14:58.546Z,70.96
2018-07-16T07:15:58.535Z,72.79
2018-07-16T07:16:58.523Z,71.09
2018-07-16T07:17:58.513Z,72.44
2018-07-16T07:18:58.498Z,70.22
2018-07-16T07:19:58.484Z,69.84
2018-07-16T07:20:58.525Z,69.45
2018-07-16T07:21:58.461Z,69.55
2018-07-16T07:22:58.450Z,69.07
2018-07-16T07:23:58.436Z,68.33
2018-07-16T07:24:58.424Z,69.78
2018-07-16T07:25:58.416Z,68.52
2018-07-16T07:26:58.401Z,66.40
2018-07-16T07:27:58.388Z,67.36
2018-07-16T07:28:58.377Z,67.55
2018-07-16T07:29:58.365Z,67.94
2018-07-16T07:30:58.357Z,68.55
2018-07-16T07:31:58.347Z,67.59
2018-07-16T07:32:58.332Z,68.94
2018-07-16T07:33:58.319Z,65.40
2018-07-16T07:34:58.353Z,64.92
2018-07-16T07:35:58.388Z,65.40
2018-07-16T07:36:58.283Z,67.04
2018-07-16T07:37:58.294Z,65.20
2018-07-16T07:38:58.259Z,66.17
2018-07-16T07:39:58.247Z,67.14
2018-07-16T07:40:58.236Z,65.53
2018-07-16T07:41:58.232Z,64.08
2018-07-16T07:42:58.217Z,64.08
2018-07-16T07:43:58.208Z,64.21
2018-07-16T07:44:58.197Z,64.79
2018-07-16T07:45:58.180Z,65.37
2018-07-16T07:46:58.169Z,64.01
2018-07-16T07:47:58.157Z,64.72
2018-07-16T07:48:58.148Z,65.01
2018-07-16T07:49:58.140Z,63.79
2018-07-16T07:50:58.131Z,61.95
2018-07-16T07:51:58.114Z,60.82
2018-07-16T07:52:58.111Z,60.39
2018-07-16T07:53:58.094Z,58.16
2018-07-16T07:54:58.331Z,56.37
2018-07-16T07:55:58.075Z,56.30
2018-07-16T07:56:58.063Z,51.99
2018-07-16T07:57:58.054Z,51.36
2018-07-16T07:58:58.044Z,48.78
2018-07-16T07:59:58.028Z,47.56
2018-07-16T08:00:58.019Z,45.65
2018-07-16T08:01:58.010Z,43.71
2018-07-16T08:02:58.005Z,44.54
2018-07-16T08:03:57.988Z,45.88
2018-07-16T08:04:57.978Z,48.85
2018-07-16T08:05:57.971Z,50.09
2018-07-16T08:06:57.976Z,49.78
2018-07-16T08:07:57.947Z,49.66
2018-07-16T08:08:57.942Z,50.60
2018-07-16T08:09:57.928Z,50.89
2018-07-16T08:10:57.919Z,53.39
2018-07-16T08:11:57.908Z,54.27
2018-07-16T08:12:58.508Z,53.27
2018-07-16T08:13:57.889Z,54.24
2018-07-16T08:14:57.880Z,53.27
2018-07-16T08:15:57.870Z,53.85
2018-07-16T08:16:57.860Z,54.14
2018-07-16T08:17:57.855Z,55.99
2018-07-16T08:18:57.844Z,55.31
2018-07-16T08:19:57.831Z,56.28
2018-07-16T08:20:57.891Z,55.21
2018-07-16T08:21:57.812Z,55.11
2018-07-16T08:22:59.015Z,55.96
2018-07-16T08:23:57.793Z,58.00
2018-07-16T08:24:57.783Z,60.16
2018-07-16T08:25:57.786Z,57.25
2018-07-16T08:26:57.772Z,56.37
2018-07-16T08:27:57.755Z,57.64
2018-07-16T08:28:57.754Z,58.41
2018-07-16T08:29:57.738Z,55.60
2018-07-16T08:30:57.733Z,56.57
2018-07-16T08:31:57.718Z,58.90
2018-07-16T08:32:57.709Z,58.61
2018-07-16T08:33:57.701Z,57.73
2018-07-16T08:34:57.696Z,56.76
2018-07-16T08:35:57.681Z,58.03
2018-07-16T08:36:57.671Z,55.11
2018-07-16T08:37:57.663Z,56.09
2018-07-16T08:38:57.716Z,57.25
2018-07-16T08:39:57.648Z,54.92
2018-07-16T08:40:57.636Z,56.18
2018-07-16T08:41:57.633Z,54.34
2018-07-16T08:42:57.618Z,54.82
2018-07-16T08:43:57.609Z,54.24
2018-07-16T08:44:57.599Z,54.72
2018-07-16T08:45:57.601Z,52.98
2018-07-16T08:46:57.591Z,53.08
2018-07-16T08:47:57.573Z,53.08
2018-07-16T08:48:57.566Z,55.11
2018-07-16T08:49:57.556Z,52.88
2018-07-16T08:50:57.552Z,52.88
2018-07-16T08:51:57.537Z,54.14
2018-07-16T08:52:57.529Z,53.97
2018-07-16T08:53:57.521Z,53.56
2018-07-16T08:54:57.514Z,52.96
2018-07-16T08:55:57.505Z,52.09
2018-07-16T08:56:57.496Z,49.17
2018-07-16T08:57:57.487Z,44.65
2018-07-16T08:58:57.490Z,44.13
2018-07-16T08:59:57.474Z,43.19
2018-07-16T09:00:57.467Z,39.80
2018-07-16T09:01:57.462Z,36.62
2018-07-16T09:02:57.450Z,35.16
2018-07-16T09:03:57.499Z,35.78
2018-07-16T09:04:57.442Z,34.41
2018-07-16T09:05:57.436Z,34.06
2018-07-16T09:06:57.432Z,33.10
2018-07-16T09:07:57.427Z,31.35
2018-07-16T09:08:57.423Z,30.57
2018-07-16T09:09:57.417Z,29.79
2018-07-16T09:10:57.438Z,31.44
2018-07-16T09:11:57.408Z,32.34
2018-07-16T09:12:57.415Z,31.47
2018-07-16T09:13:57.402Z,30.91
2018-07-16T09:14:57.400Z,29.92
2018-07-16T09:15:57.395Z,30.13
2018-07-16T09:16:57.471Z,28.48
2018-07-16T09:17:57.389Z,27.90
2018-07-16T09:18:57.388Z,28.21
2018-07-16T09:19:57.382Z,27.12
2018-07-16T09:20:57.381Z,26.84
2018-07-16T09:21:57.375Z,25.95
2018-07-16T09:22:57.374Z,26.85
2018-07-16T09:23:57.375Z,25.98
2018-07-16T09:24:57.369Z,24.90
2018-07-16T09:25:57.372Z,25.71
2018-07-16T09:26:57.366Z,23.23
2018-07-16T09:27:57.369Z,23.52
2018-07-16T09:28:57.363Z,23.74
2018-07-16T09:29:57.363Z,24.83
2018-07-16T09:30:57.358Z,23.74
2018-07-16T09:31:57.417Z,24.85
2018-07-16T09:32:57.359Z,24.34
2018-07-16T09:33:57.360Z,22.55
2018-07-16T09:34:57.357Z,23.26
2018-07-16T09:35:57.357Z,24.27
2018-07-16T09:36:57.354Z,21.89
2018-07-16T09:37:57.354Z,23.19
2018-07-16T09:38:57.381Z,23.19
2018-07-16T09:39:57.354Z,20.79
2018-07-16T09:40:57.352Z,22.89
2018-07-16T09:41:57.350Z,22.01
2018-07-16T09:42:57.356Z,22.02
2018-07-16T09:43:57.351Z,21.93
2018-07-16T09:44:57.357Z,21.44
2018-07-16T09:45:57.360Z,22.64
2018-07-16T09:46:57.352Z,23.05
2018-07-16T09:47:57.352Z,21.75
2018-07-16T09:48:57.353Z,22.46
2018-07-16T09:49:57.351Z,20.26
2018-07-16T09:50:57.351Z,20.87
2018-07-16T09:51:57.350Z,19.57
2018-07-16T09:52:57.360Z,21.36
2018-07-16T09:53:57.350Z,19.56
2018-07-16T09:54:57.351Z,19.85
2018-07-16T09:55:57.350Z,20.84
2018-07-16T09:56:57.351Z,20.64
2018-07-16T09:57:57.350Z,20.24
2018-07-16T09:58:57.352Z,18.44
2018-07-16T09:59:57.353Z,20.84
2018-07-16T10:00:57.352Z,19.24
2018-07-16T10:01:57.355Z,22.64
2018-07-16T10:02:57.360Z,18.66
2018-07-16T10:03:57.359Z,20.67
2018-07-16T10:04:57.358Z,18.78
2018-07-16T10:05:57.409Z,18.68
2018-07-16T10:06:57.360Z,18.99
2018-07-16T10:07:57.361Z,18.28
2018-07-16T10:08:57.360Z,18.29
2018-07-16T10:09:57.363Z,16.78
2018-07-16T10:10:57.368Z,17.79
2018-07-16T10:11:57.367Z,19.79
2018-07-16T10:12:57.373Z,18.40
2018-07-16T10:13:57.370Z,17.90
2018-07-16T10:14:57.370Z,18.68
2018-07-16T10:15:57.373Z,20.48
2018-07-16T10:16:57.377Z,19.10
2018-07-16T10:17:57.382Z,18.99
2018-07-16T10:18:57.374Z,19.48
2018-07-16T10:19:57.432Z,19.49
2018-07-16T10:20:57.378Z,18.19
2018-07-16T10:21:57.381Z,17.47
2018-07-16T10:22:57.390Z,20.26
2018-07-16T10:23:57.386Z,21.26
2018-07-16T10:24:57.384Z,20.37
2018-07-16T10:25:57.502Z,20.89
2018-07-16T10:26:57.390Z,17.99
2018-07-16T10:27:57.391Z,17.30
2018-07-16T10:28:57.400Z,17.40
2018-07-16T10:29:57.394Z,18.70
2018-07-16T10:30:57.399Z,19.40
2018-07-16T10:31:57.398Z,20.01
2018-07-16T10:32:57.405Z,18.49
2018-07-16T10:33:57.645Z,20.31
2018-07-16T10:34:57.410Z,18.60
2018-07-16T10:35:57.407Z,18.40
2018-07-16T10:36:57.410Z,18.28
2018-07-16T10:37:57.416Z,19.89
2018-07-16T10:38:57.417Z,18.29
2018-07-16T10:39:57.416Z,19.10
2018-07-16T10:40:57.420Z,17.60
2018-07-16T10:41:57.426Z,16.69
2018-07-16T10:42:57.427Z,16.29
2018-07-16T10:43:57.427Z,17.46
2018-07-16T10:44:57.429Z,20.36
2018-07-16T10:45:57.433Z,19.36
2018-07-16T10:46:57.436Z,20.47
2018-07-16T10:47:57.440Z,20.26
2018-07-16T10:48:57.446Z,18.18
2018-07-16T10:49:57.443Z,17.47
2018-07-16T10:50:57.456Z,19.17
2018-07-16T10:51:57.452Z,18.37
2018-07-16T10:52:57.455Z,17.47
2018-07-16T10:53:57.458Z,17.37
2018-07-16T10:54:57.464Z,17.88
2018-07-16T10:55:57.461Z,19.29
2018-07-16T10:56:57.466Z,17.09
2018-07-16T10:57:57.468Z,18.51
2018-07-16T10:58:57.474Z,17.10
2018-07-16T10:59:57.474Z,17.60
2018-07-16T11:00:57.477Z,19.70
2018-07-16T11:01:57.494Z,16.91
2018-07-16T11:02:57.487Z,16.80
2018-07-16T11:03:57.490Z,16.80
2018-07-16T11:04:57.493Z,16.91
2018-07-16T11:05:57.496Z,17.50
2018-07-16T11:06:57.507Z,17.39
2018-07-16T11:07:57.510Z,16.67
2018-07-16T11:08:57.515Z,17.36
2018-07-16T11:09:57.512Z,18.76
2018-07-16T11:10:57.512Z,18.67
2018-07-16T11:11:57.520Z,19.77
2018-07-16T11:12:57.524Z,17.89
2018-07-16T11:13:57.526Z,17.40
2018-07-16T11:14:57.559Z,19.10
2018-07-16T11:15:57.529Z,17.01
2018-07-16T11:16:57.534Z,17.60
2018-07-16T11:17:57.538Z,16.69
2018-07-16T11:18:57.543Z,16.79
2018-07-16T11:19:57.544Z,17.58
2018-07-16T11:20:57.696Z,18.48
2018-07-16T11:21:57.552Z,19.68
2018-07-16T11:22:57.561Z,19.51
2018-07-16T11:23:57.567Z,18.91
2018-07-16T11:24:57.566Z,16.71
2018-07-16T11:25:57.569Z,18.01
2018-07-16T11:26:57.574Z,18.01
2018-07-16T11:27:57.577Z,18.22
2018-07-16T11:28:57.585Z,16.93
2018-07-16T11:29:57.587Z,17.43
2018-07-16T11:30:57.598Z,18.84
2018-07-16T11:31:57.594Z,16.94
2018-07-16T11:32:57.598Z,16.75
2018-07-16T11:33:57.602Z,15.73
2018-07-16T11:34:57.607Z,16.03
2018-07-16T11:35:57.740Z,17.93
2018-07-16T11:36:57.631Z,17.44
2018-07-16T11:37:57.621Z,20.47
2018-07-16T11:38:57.626Z,16.65
2018-07-16T11:39:57.635Z,15.65
2018-07-16T11:40:57.632Z,14.83
2018-07-16T11:41:57.644Z,15.52
2018-07-16T11:42:57.652Z,15.80
2018-07-16T11:43:57.647Z,17.30
2018-07-16T11:44:57.653Z,16.20
2018-07-16T11:45:57.659Z,17.29
2018-07-16T11:46:57.662Z,17.08
2018-07-16T11:47:57.673Z,17.38
2018-07-16T11:48:57.671Z,18.18
2018-07-16T11:49:57.680Z,17.48
2018-07-16T11:50:57.683Z,16.67
2018-07-16T11:51:57.687Z,18.86
2018-07-16T11:52:57.704Z,16.96
2018-07-16T11:53:57.696Z,17.26
2018-07-16T11:54:57.700Z,19.77
2018-07-16T11:55:57.707Z,16.57
2018-07-16T11:56:57.709Z,17.27
2018-07-16T11:57:57.722Z,18.16
2018-07-16T11:58:57.759Z,17.66
2018-07-16T11:59:57.721Z,18.56
2018-07-16T12:00:57.728Z,18.35
2018-07-16T12:01:57.766Z,18.44
2018-07-16T12:02:57.737Z,18.73
2018-07-16T12:03:57.738Z,19.21
2018-07-16T12:04:57.745Z,20.10
2018-07-16T12:05:57.745Z,22.08
2018-07-16T12:06:57.748Z,23.25
2018-07-16T12:07:57.752Z,20.75
2018-07-16T12:08:57.754Z,22.44
2018-07-16T12:09:57.756Z,22.92
2018-07-16T12:10:57.758Z,22.82
2018-07-16T12:11:57.760Z,24.12
2018-07-16T12:12:57.764Z,21.34
2018-07-16T12:13:57.774Z,23.54
2018-07-16T12:14:57.769Z,22.66
2018-07-16T12:15:57.770Z,22.66
2018-07-16T12:16:57.773Z,21.08
2018-07-16T12:17:57.776Z,20.79
2018-07-16T12:18:57.779Z,22.08
2018-07-16T12:19:57.780Z,20.19
2018-07-16T12:20:57.782Z,19.88
2018-07-16T12:21:57.786Z,23.07
2018-07-16T12:22:57.786Z,20.87
2018-07-16T12:23:57.788Z,21.77
2018-07-16T12:24:57.791Z,20.68
2018-07-16T12:25:57.820Z,20.09
2018-07-16T12:26:57.797Z,20.89
2018-07-16T12:27:57.798Z,19.89
2018-07-16T12:28:57.801Z,18.09
2018-07-16T12:29:57.806Z,18.69
2018-07-16T12:30:57.803Z,19.48
2018-07-16T12:31:57.804Z,18.28
2018-07-16T12:32:57.855Z,19.16
2018-07-16T12:33:57.808Z,19.35
2018-07-16T12:34:57.810Z,20.04
2018-07-16T12:35:57.819Z,21.72
2018-07-16T12:36:57.812Z,21.92
2018-07-16T12:37:57.816Z,21.03
2018-07-16T12:38:57.815Z,21.34
2018-07-16T12:39:57.820Z,19.85
2018-07-16T12:40:57.819Z,20.44
2018-07-16T12:41:57.826Z,21.23
2018-07-16T12:42:57.823Z,22.51
2018-07-16T12:43:57.822Z,19.33
2018-07-16T12:44:57.821Z,23.10
2018-07-16T12:45:57.822Z,21.21
2018-07-16T12:46:57.889Z,21.89
2018-07-16T12:47:57.824Z,21.70
2018-07-16T12:48:57.826Z,23.68
2018-07-16T12:49:57.825Z,25.66
2018-07-16T12:50:57.827Z,24.56
2018-07-16T12:51:57.826Z,25.95
2018-07-16T12:52:57.828Z,22.86